createdAt,value
2023-03-12T00:01:11.348Z,97.69
2023-03-12T00:03:38.782Z,97.14
2023-03-12T00:06:10.751Z,97.88
2023-03-12T00:08:39.090Z,97.84
2023-03-12T00:11:08.198Z,97.60
2023-03-12T00:13:35.941Z,97.71
2023-03-12T00:16:05.638Z,98.08
2023-03-12T00:18:33.115Z,97.79
2023-03-12T00:21:00.765Z,97.55
2023-03-12T00:23:30.132Z,97.94
2023-03-12T00:26:01.362Z,97.99
2023-03-12T00:28:28.747Z,97.60
2023-03-12T00:30:57.276Z,97.80
2023-03-12T00:33:25.342Z,98.40
2023-03-12T00:35:53.588Z,97.93
2023-03-12T00:38:20.897Z,98.20
2023-03-12T00:40:50.404Z,98.22
2023-03-12T00:43:17.733Z,98.19
2023-03-12T00:45:45.588Z,97.99
2023-03-12T00:48:13.290Z,98.15
2023-03-12T00:50:40.657Z,98.12
2023-03-12T00:53:08.016Z,98.48
2023-03-12T00:55:35.370Z,98.52
2023-03-12T00:58:04.354Z,98.55
2023-03-12T01:00:31.984Z,98.44
2023-03-12T01:02:59.367Z,98.18
2023-03-12T01:05:26.997Z,98.64
2023-03-12T01:07:54.516Z,98.55
2023-03-12T01:10:22.365Z,98.76
2023-03-12T01:12:49.676Z,99.14
2023-03-12T01:15:18.641Z,98.56
2023-03-12T01:17:46.031Z,98.63
2023-03-12T01:20:13.591Z,98.95
2023-03-12T01:22:40.905Z,99.17
2023-03-12T01:25:09.229Z,99.27
2023-03-12T01:27:36.776Z,99.15
2023-03-12T01:30:05.437Z,98.82
2023-03-12T01:32:34.163Z,99.18
2023-03-12T01:35:01.543Z,99.36
2023-03-12T01:37:29.329Z,98.84
2023-03-12T01:39:56.987Z,99.14
2023-03-12T01:42:24.626Z,99.30
2023-03-12T01:44:54.165Z,99.56
2023-03-12T01:47:22.070Z,99.10
2023-03-12T01:49:52.451Z,99.29
2023-03-12T01:52:22.642Z,99.72
2023-03-12T01:54:58.045Z,99.15
2023-03-12T01:57:31.947Z,99.58
2023-03-12T02:00:05.693Z,99.67
2023-03-12T02:02:42.947Z,99.62
2023-03-12T02:05:18.832Z,99.74
2023-03-12T02:07:47.212Z,99.28
2023-03-12T02:10:15.395Z,99.48
2023-03-12T02:12:42.922Z,99.71
2023-03-12T02:15:11.725Z,99.62
2023-03-12T02:17:40.617Z,99.69
2023-03-12T02:20:18.462Z,99.52
2023-03-12T02:22:51.637Z,99.72
2023-03-12T02:25:28.580Z,99.89
2023-03-12T02:27:58.338Z,99.96
2023-03-12T02:30:27.289Z,99.70
2023-03-12T02:32:55.561Z,99.83
2023-03-12T02:35:23.111Z,99.85
2023-03-12T02:37:53.218Z,100.00
2023-03-12T02:40:29.481Z,100.00
2023-03-12T02:42:57.463Z,99.67
2023-03-12T02:45:26.245Z,100.00
2023-03-12T02:47:54.006Z,100.00
2023-03-12T02:50:21.498Z,99.89
2023-03-12T02:52:48.881Z,100.00
2023-03-12T02:55:16.268Z,99.83
2023-03-12T02:57:44.868Z,100.00
2023-03-12T03:00:17.014Z,100.00
2023-03-12T03:02:48.922Z,100.00
2023-03-12T03:05:16.878Z,100.00
2023-03-12T03:07:44.126Z,99.99
2023-03-12T03:10:11.716Z,99.95
2023-03-12T03:12:39.986Z,99.88
2023-03-12T03:15:11.387Z,100.00
2023-03-12T03:17:39.657Z,99.83
2023-03-12T03:20:11.341Z,100.00
2023-03-12T03:22:39.127Z,100.00
2023-03-12T03:25:08.039Z,100.00
2023-03-12T03:27:35.567Z,100.00
2023-03-12T03:30:03.279Z,100.00
2023-03-12T03:32:35.844Z,100.00
2023-03-12T03:35:03.698Z,100.00
2023-03-12T03:37:31.233Z,100.00
2023-03-12T03:39:58.715Z,100.00
2023-03-12T03:42:26.069Z,100.00
2023-03-12T03:44:53.655Z,100.00
2023-03-12T03:47:21.552Z,100.00
2023-03-12T03:49:50.517Z,100.00
2023-03-12T03:52:17.890Z,100.00
2023-03-12T03:54:45.333Z,100.00
2023-03-12T03:57:12.807Z,100.00
2023-03-12T03:59:40.907Z,100.00
2023-03-12T04:02:08.464Z,100.00
2023-03-12T04:04:38.998Z,100.00
2023-03-12T04:07:09.319Z,100.00
2023-03-12T04:09:37.221Z,100.00
2023-03-12T04:12:04.988Z,100.00
2023-03-12T04:14:33.156Z,100.00
2023-03-12T04:17:00.896Z,100.00
2023-03-12T04:19:28.268Z,100.00
2023-03-12T04:21:55.804Z,100.00
2023-03-12T04:24:24.702Z,100.00
2023-03-12T04:26:52.499Z,100.00
2023-03-12T04:29:20.124Z,100.00
2023-03-12T04:31:48.847Z,100.00
2023-03-12T04:34:16.318Z,100.00
2023-03-12T04:36:47.245Z,100.00
2023-03-12T04:39:17.880Z,100.00
2023-03-12T04:41:47.414Z,100.00
2023-03-12T04:44:16.314Z,100.00
2023-03-12T04:46:43.830Z,100.00
2023-03-12T04:49:14.409Z,100.00
2023-03-12T04:51:43.150Z,100.00
2023-03-12T04:54:10.439Z,100.00
2023-03-12T04:56:39.738Z,100.00
2023-03-12T04:59:08.731Z,100.00
2023-03-12T05:01:37.643Z,100.00
2023-03-12T05:04:10.434Z,100.00
2023-03-12T05:06:37.780Z,100.00
2023-03-12T05:09:05.466Z,100.00
2023-03-12T05:11:32.932Z,100.00
2023-03-12T05:14:00.544Z,100.00
2023-03-12T05:16:30.329Z,100.00
2023-03-12T05:18:58.057Z,100.00
2023-03-12T05:21:26.138Z,100.00
2023-03-12T05:23:55.993Z,100.00
2023-03-12T05:26:27.061Z,100.00
2023-03-12T05:29:02.081Z,100.00
2023-03-12T05:31:35.582Z,100.00
2023-03-12T05:34:06.090Z,100.00
2023-03-12T05:36:37.285Z,100.00
2023-03-12T05:39:05.436Z,100.00
2023-03-12T05:41:34.995Z,100.00
2023-03-12T05:44:16.296Z,100.00
2023-03-12T05:46:49.441Z,100.00
2023-03-12T05:49:16.941Z,100.00
2023-03-12T05:51:44.644Z,100.00
2023-03-12T05:54:12.230Z,100.00
2023-03-12T05:56:40.188Z,100.00
2023-03-12T05:59:10.569Z,100.00
2023-03-12T06:01:39.750Z,100.00
2023-03-12T06:04:09.226Z,100.00
2023-03-12T06:06:38.083Z,100.00
2023-03-12T06:09:05.996Z,100.00
2023-03-12T06:11:34.056Z,100.00
2023-03-12T06:14:01.752Z,100.00
2023-03-12T06:16:30.346Z,100.00
2023-03-12T06:18:59.573Z,100.00
2023-03-12T06:21:29.786Z,100.00
2023-03-12T06:23:57.659Z,100.00
2023-03-12T06:26:34.242Z,100.00
2023-03-12T06:29:01.680Z,100.00
2023-03-12T06:31:29.083Z,100.00
2023-03-12T06:33:56.361Z,100.00
2023-03-12T06:36:24.666Z,100.00
2023-03-12T06:38:56.594Z,100.00
2023-03-12T06:41:24.413Z,100.00
2023-03-12T06:43:51.704Z,100.00
2023-03-12T06:46:25.818Z,100.00
2023-03-12T06:48:53.293Z,100.00
2023-03-12T06:51:20.758Z,100.00
2023-03-12T06:53:48.121Z,100.00
2023-03-12T06:56:16.917Z,100.00
2023-03-12T06:58:44.428Z,100.00
2023-03-12T07:01:12.048Z,100.00
2023-03-12T07:03:39.482Z,100.00
2023-03-12T07:06:13.919Z,100.00
2023-03-12T07:08:41.276Z,100.00
2023-03-12T07:11:08.921Z,100.00
2023-03-12T07:13:37.983Z,100.00
2023-03-12T07:16:06.841Z,100.00
2023-03-12T07:18:34.536Z,100.00
2023-03-12T07:21:02.043Z,100.00
2023-03-12T07:23:29.483Z,100.00
2023-03-12T07:25:56.785Z,100.00
2023-03-12T07:28:24.345Z,100.00
2023-03-12T07:30:53.145Z,100.00
2023-03-12T07:33:22.375Z,100.00
2023-03-12T07:35:51.664Z,100.00
2023-03-12T07:38:19.519Z,100.00
2023-03-12T07:40:51.472Z,100.00
2023-03-12T07:43:20.506Z,100.00
2023-03-12T07:45:50.785Z,100.00
2023-03-12T07:48:20.246Z,100.00
2023-03-12T07:50:48.611Z,100.00
2023-03-12T07:53:16.725Z,100.00
2023-03-12T07:55:45.123Z,100.00
2023-03-12T07:58:13.632Z,100.00
2023-03-12T08:00:41.113Z,100.00
2023-03-12T08:03:08.755Z,100.00
2023-03-12T08:05:37.638Z,100.00
2023-03-12T08:08:05.400Z,100.00
2023-03-12T08:10:32.752Z,100.00
2023-03-12T08:13:00.095Z,100.00
2023-03-12T08:15:27.526Z,100.00
2023-03-12T08:17:54.774Z,100.00
2023-03-12T08:20:22.141Z,100.00
2023-03-12T08:22:50.820Z,100.00
2023-03-12T08:25:18.727Z,100.00
2023-03-12T08:27:46.009Z,100.00
2023-03-12T08:30:13.697Z,100.00
2023-03-12T08:32:41.145Z,100.00
2023-03-12T08:35:10.258Z,100.00
2023-03-12T08:37:37.670Z,100.00
2023-03-12T08:40:13.782Z,100.00
2023-03-12T08:42:41.978Z,100.00
2023-03-12T08:45:10.549Z,100.00
2023-03-12T08:47:41.689Z,100.00
2023-03-12T08:50:11.388Z,100.00
2023-03-12T08:52:38.840Z,100.00
2023-03-12T08:55:08.388Z,100.00
2023-03-12T08:57:35.742Z,100.00
2023-03-12T09:00:05.996Z,100.00
2023-03-12T09:02:33.508Z,100.00
2023-03-12T09:05:00.835Z,100.00
2023-03-12T09:07:28.103Z,100.00
2023-03-12T09:09:55.750Z,100.00
2023-03-12T09:12:25.090Z,100.00
2023-03-12T09:15:08.256Z,100.00
2023-03-12T09:17:35.613Z,100.00
2023-03-12T09:20:07.103Z,100.00
2023-03-12T09:22:36.962Z,100.00
2023-03-12T09:25:04.944Z,100.00
2023-03-12T09:27:39.290Z,100.00
2023-03-12T09:30:08.935Z,100.00
2023-03-12T09:32:36.515Z,100.00
2023-03-12T09:35:04.969Z,100.00
2023-03-12T09:37:35.434Z,100.00
2023-03-12T09:40:07.727Z,100.00
2023-03-12T09:42:47.230Z,100.00
2023-03-12T09:45:20.005Z,100.00
2023-03-12T09:47:51.001Z,100.00
2023-03-12T09:50:25.011Z,100.00
2023-03-12T09:52:58.093Z,100.00
2023-03-12T09:55:26.329Z,100.00
2023-03-12T09:57:56.921Z,100.00
2023-03-12T10:00:30.251Z,100.00
2023-03-12T10:03:18.059Z,100.00
2023-03-12T10:05:52.615Z,100.00
2023-03-12T10:08:31.438Z,100.00
2023-03-12T10:11:06.087Z,100.00
2023-03-12T10:13:48.508Z,100.00
2023-03-12T10:16:30.747Z,100.00
2023-03-12T10:19:12.449Z,100.00
2023-03-12T10:21:48.880Z,100.00
2023-03-12T10:24:29.055Z,100.00
2023-03-12T10:26:57.996Z,100.00
2023-03-12T10:29:31.255Z,100.00
2023-03-12T10:32:02.744Z,100.00
2023-03-12T10:34:37.695Z,100.00
2023-03-12T10:37:14.315Z,100.00
2023-03-12T10:39:41.660Z,100.00
2023-03-12T10:42:16.566Z,100.00
2023-03-12T10:44:46.873Z,100.00
2023-03-12T10:47:27.927Z,100.00
2023-03-12T10:49:55.323Z,100.00
2023-03-12T10:52:25.415Z,100.00
2023-03-12T10:54:53.730Z,100.00
2023-03-12T10:57:21.350Z,100.00
2023-03-12T10:59:51.501Z,100.00
2023-03-12T11:02:33.969Z,100.00
2023-03-12T11:05:03.705Z,100.00
2023-03-12T11:07:33.430Z,100.00
2023-03-12T11:10:22.659Z,100.00
2023-03-12T11:13:00.020Z,100.00
2023-03-12T11:15:37.052Z,100.00
2023-03-12T11:18:35.067Z,100.00
2023-03-12T11:21:17.993Z,100.00
2023-03-12T11:24:04.409Z,100.00
2023-03-12T11:26:35.358Z,100.00
2023-03-12T11:29:07.172Z,100.00
2023-03-12T11:31:41.405Z,100.00
2023-03-12T11:34:21.076Z,100.00
2023-03-12T11:36:56.425Z,100.00
2023-03-12T11:39:35.620Z,100.00
2023-03-12T11:42:18.666Z,100.00
2023-03-12T11:44:57.513Z,100.00
2023-03-12T11:47:46.012Z,100.00
2023-03-12T11:50:27.831Z,100.00
2023-03-12T11:53:13.172Z,100.00
2023-03-12T11:55:48.931Z,100.00
2023-03-12T11:58:50.090Z,100.00
2023-03-12T12:01:24.599Z,100.00
2023-03-12T12:04:30.631Z,100.00
2023-03-12T12:07:07.775Z,99.38
2023-03-12T12:09:43.979Z,99.72
2023-03-12T12:12:21.612Z,99.70
2023-03-12T12:15:19.817Z,99.62
2023-03-12T12:17:57.233Z,99.65
2023-03-12T12:20:36.549Z,99.72
2023-03-12T12:23:17.536Z,99.76
2023-03-12T12:26:06.152Z,99.86
2023-03-12T12:28:59.731Z,100.00
2023-03-12T12:31:31.707Z,100.00
2023-03-12T12:34:43.237Z,100.00
2023-03-12T12:37:24.024Z,100.00
2023-03-12T12:40:04.991Z,100.00
2023-03-12T12:42:36.806Z,99.97
2023-03-12T12:45:05.950Z,100.00
2023-03-12T12:47:42.841Z,100.00
2023-03-12T12:50:17.443Z,99.77
2023-03-12T12:52:46.302Z,100.00
2023-03-12T12:55:20.377Z,100.00
2023-03-12T12:57:58.166Z,100.00
2023-03-12T13:00:39.817Z,99.78
2023-03-12T13:03:11.845Z,99.88
2023-03-12T13:05:47.360Z,100.00
2023-03-12T13:08:57.649Z,100.00
2023-03-12T13:11:29.784Z,99.73
2023-03-12T13:14:29.573Z,99.72
2023-03-12T13:17:33.877Z,100.00
2023-03-12T13:20:15.467Z,99.60
2023-03-12T13:22:59.899Z,99.50
2023-03-12T13:25:40.086Z,99.86
2023-03-12T13:28:42.012Z,99.88
2023-03-12T13:31:35.835Z,100.00
2023-03-12T13:34:33.442Z,100.00
2023-03-12T13:37:03.147Z,100.00
2023-03-12T13:39:32.459Z,99.79
2023-03-12T13:42:00.890Z,99.40
2023-03-12T13:44:38.621Z,99.76
2023-03-12T13:47:22.956Z,99.75
2023-03-12T13:49:55.292Z,99.22
2023-03-12T13:52:25.582Z,99.84
2023-03-12T13:55:01.058Z,99.35
2023-03-12T13:57:40.233Z,99.48
2023-03-12T14:00:17.444Z,100.00
2023-03-12T14:02:51.576Z,100.00
2023-03-12T14:05:20.629Z,99.51
2023-03-12T14:08:11.850Z,99.75
2023-03-12T14:10:53.632Z,100.00
2023-03-12T14:13:51.825Z,100.00
2023-03-12T14:16:27.039Z,99.58
2023-03-12T14:18:54.754Z,99.18
2023-03-12T14:21:24.254Z,99.25
2023-03-12T14:23:56.015Z,99.27
2023-03-12T14:26:25.887Z,99.21
2023-03-12T14:29:00.359Z,99.05
2023-03-12T14:31:30.836Z,99.48
2023-03-12T14:34:02.221Z,98.86
2023-03-12T14:36:37.664Z,98.99
2023-03-12T14:39:16.128Z,99.75
2023-03-12T14:41:48.616Z,99.38
2023-03-12T14:44:25.879Z,99.64
2023-03-12T14:47:02.338Z,99.86
2023-03-12T14:49:31.243Z,99.53
2023-03-12T14:51:59.015Z,99.90
2023-03-12T14:54:28.016Z,100.00
2023-03-12T14:56:55.379Z,99.77
2023-03-12T14:59:25.937Z,99.14
2023-03-12T15:01:56.950Z,99.79
2023-03-12T15:04:26.171Z,99.15
2023-03-12T15:06:59.040Z,99.34
2023-03-12T15:09:28.990Z,99.43
2023-03-12T15:11:59.636Z,99.42
2023-03-12T15:14:28.663Z,99.37
2023-03-12T15:16:59.409Z,99.54
2023-03-12T15:19:33.385Z,99.24
2023-03-12T15:22:00.749Z,99.62
2023-03-12T15:24:34.567Z,99.78
2023-03-12T15:27:20.679Z,99.11
2023-03-12T15:29:48.348Z,99.20
2023-03-12T15:32:17.480Z,99.59
2023-03-12T15:34:47.224Z,99.14
2023-03-12T15:37:28.753Z,99.39
2023-03-12T15:39:57.030Z,98.79
2023-03-12T15:42:27.297Z,98.75
2023-03-12T15:44:56.974Z,99.02
2023-03-12T15:47:30.906Z,98.68
2023-03-12T15:50:03.441Z,98.75
2023-03-12T15:52:33.435Z,98.53
2023-03-12T15:55:04.855Z,98.89
2023-03-12T15:57:34.313Z,99.04
2023-03-12T16:00:17.420Z,98.86
2023-03-12T16:02:50.659Z,98.66
2023-03-12T16:05:20.640Z,98.72
2023-03-12T16:07:48.444Z,98.83
2023-03-12T16:10:18.238Z,98.59
2023-03-12T16:12:47.212Z,99.12
2023-03-12T16:15:16.297Z,99.02
2023-03-12T16:17:44.068Z,98.90
2023-03-12T16:20:15.163Z,99.15
2023-03-12T16:22:44.594Z,99.01
2023-03-12T16:25:13.252Z,98.63
2023-03-12T16:27:46.995Z,98.96
2023-03-12T16:30:18.029Z,98.54
2023-03-12T16:32:45.636Z,98.29
2023-03-12T16:35:15.831Z,98.46
2023-03-12T16:37:44.682Z,98.27
2023-03-12T16:40:23.959Z,98.93
2023-03-12T16:43:02.720Z,98.43
2023-03-12T16:45:30.653Z,98.55
2023-03-12T16:48:00.278Z,98.67
2023-03-12T16:50:28.351Z,98.82
2023-03-12T16:52:57.797Z,98.40
2023-03-12T16:55:28.803Z,98.47
2023-03-12T16:57:59.242Z,98.48
2023-03-12T17:00:29.155Z,98.82
2023-03-12T17:03:00.005Z,98.77
2023-03-12T17:05:29.206Z,98.27
2023-03-12T17:07:59.356Z,98.30
2023-03-12T17:10:26.816Z,98.18
2023-03-12T17:12:55.708Z,97.95
2023-03-12T17:15:30.638Z,98.00
2023-03-12T17:18:01.063Z,97.63
2023-03-12T17:20:28.391Z,97.90
2023-03-12T17:22:57.342Z,97.66
2023-03-12T17:25:26.582Z,97.79
2023-03-12T17:27:59.296Z,97.69
2023-03-12T17:30:28.157Z,97.65
2023-03-12T17:33:02.215Z,97.53
2023-03-12T17:35:29.732Z,97.62
2023-03-12T17:37:58.485Z,97.49
2023-03-12T17:40:26.871Z,97.54
2023-03-12T17:42:54.737Z,97.36
2023-03-12T17:45:22.197Z,97.04
2023-03-12T17:47:50.153Z,97.48
2023-03-12T17:50:17.699Z,97.33
2023-03-12T17:52:45.446Z,97.57
2023-03-12T17:55:14.136Z,97.24
2023-03-12T17:57:41.379Z,97.26
2023-03-12T18:00:13.004Z,97.32
2023-03-12T18:02:41.469Z,97.56
2023-03-12T18:05:10.449Z,97.57
2023-03-12T18:07:38.296Z,97.30
2023-03-12T18:10:07.823Z,97.65
2023-03-12T18:12:38.167Z,97.41
2023-03-12T18:15:06.071Z,97.60
2023-03-12T18:17:33.359Z,97.42
2023-03-12T18:20:00.721Z,97.68
2023-03-12T18:22:27.954Z,96.93
2023-03-12T18:24:55.160Z,97.45
2023-03-12T18:27:22.594Z,97.29
2023-03-12T18:29:51.228Z,97.23
2023-03-12T18:32:18.668Z,97.04
2023-03-12T18:34:47.830Z,96.67
2023-03-12T18:37:15.209Z,96.43
2023-03-12T18:39:42.496Z,96.69
2023-03-12T18:42:10.272Z,96.12
2023-03-12T18:44:37.608Z,96.34
2023-03-12T18:47:06.399Z,96.41
2023-03-12T18:49:33.869Z,96.05
2023-03-12T18:52:01.343Z,96.32
2023-03-12T18:54:28.613Z,95.68
2023-03-12T18:56:55.994Z,95.57
2023-03-12T18:59:23.525Z,95.75
2023-03-12T19:01:50.915Z,95.82
2023-03-12T19:04:19.896Z,95.73
2023-03-12T19:06:51.450Z,95.60
2023-03-12T19:09:19.859Z,95.49
2023-03-12T19:11:47.813Z,95.63
2023-03-12T19:14:15.499Z,95.73
2023-03-12T19:16:42.918Z,95.51
2023-03-12T19:19:10.317Z,95.34
2023-03-12T19:21:39.015Z,95.14
2023-03-12T19:24:06.602Z,95.02
2023-03-12T19:26:34.275Z,94.93
2023-03-12T19:29:01.541Z,95.00
2023-03-12T19:31:28.848Z,94.77
2023-03-12T19:33:56.102Z,94.80
2023-03-12T19:36:23.571Z,94.83
2023-03-12T19:38:52.376Z,94.41
2023-03-12T19:41:19.677Z,94.35
2023-03-12T19:43:46.936Z,94.31
2023-03-12T19:46:14.311Z,94.70
2023-03-12T19:48:41.622Z,94.82
2023-03-12T19:51:11.205Z,94.68
2023-03-12T19:53:39.016Z,94.79
2023-03-12T19:56:08.175Z,94.67
2023-03-12T19:58:35.534Z,94.64
2023-03-12T20:01:03.834Z,94.40
2023-03-12T20:03:32.962Z,94.78
2023-03-12T20:06:00.605Z,94.65
2023-03-12T20:08:31.020Z,94.88
2023-03-12T20:11:03.072Z,94.44
2023-03-12T20:13:32.185Z,94.71
2023-03-12T20:16:00.302Z,94.37
2023-03-12T20:18:27.789Z,94.72
2023-03-12T20:20:55.135Z,94.52
2023-03-12T20:23:22.470Z,94.82
2023-03-12T20:25:50.809Z,94.28
2023-03-12T20:28:18.390Z,94.25
2023-03-12T20:30:47.181Z,94.33
2023-03-12T20:33:14.617Z,94.41
2023-03-12T20:35:41.808Z,94.12
2023-03-12T20:38:09.637Z,93.99
2023-03-12T20:40:37.213Z,94.11
2023-03-12T20:43:05.207Z,94.01
2023-03-12T20:45:33.309Z,93.91
2023-03-12T20:48:02.263Z,94.12
2023-03-12T20:50:29.763Z,94.04
2023-03-12T20:52:57.248Z,93.79
2023-03-12T20:55:24.572Z,93.73
2023-03-12T20:57:51.872Z,93.77
2023-03-12T21:00:21.692Z,94.06
2023-03-12T21:02:49.177Z,93.94
2023-03-12T21:05:18.116Z,93.84
2023-03-12T21:07:45.460Z,93.50
2023-03-12T21:10:13.749Z,93.59
2023-03-12T21:12:41.578Z,93.69
2023-03-12T21:15:12.421Z,93.71
2023-03-12T21:17:40.790Z,93.58
2023-03-12T21:20:10.786Z,93.48
2023-03-12T21:22:39.528Z,93.29
2023-03-12T21:25:07.684Z,93.54
2023-03-12T21:27:48.031Z,93.39
2023-03-12T21:30:17.788Z,93.10
2023-03-12T21:32:45.284Z,93.27
2023-03-12T21:35:12.673Z,92.98
2023-03-12T21:37:41.627Z,93.23
2023-03-12T21:40:10.133Z,92.84
2023-03-12T21:42:37.593Z,93.06
2023-03-12T21:45:05.918Z,92.96
2023-03-12T21:47:36.728Z,92.37
2023-03-12T21:50:04.693Z,92.52
2023-03-12T21:52:34.351Z,92.55
2023-03-12T21:55:03.089Z,92.67
2023-03-12T21:57:30.596Z,92.68
2023-03-12T21:59:57.917Z,92.74
2023-03-12T22:02:27.859Z,92.50
2023-03-12T22:04:55.239Z,92.61
2023-03-12T22:07:22.643Z,92.21
2023-03-12T22:09:50.038Z,91.92
2023-03-12T22:12:18.788Z,92.07
2023-03-12T22:14:46.009Z,91.99
2023-03-12T22:17:13.369Z,91.72
2023-03-12T22:19:42.063Z,91.64
2023-03-12T22:22:09.528Z,91.51
2023-03-12T22:24:37.673Z,91.07
2023-03-12T22:27:07.583Z,91.05
2023-03-12T22:29:36.218Z,91.13
2023-03-12T22:32:03.829Z,91.19
2023-03-12T22:34:31.123Z,91.11
2023-03-12T22:36:58.468Z,90.90
2023-03-12T22:39:25.850Z,90.90
2023-03-12T22:41:53.788Z,90.91
2023-03-12T22:44:21.031Z,91.09
2023-03-12T22:46:51.015Z,90.97
2023-03-12T22:49:18.584Z,90.80
2023-03-12T22:51:45.899Z,90.76
2023-03-12T22:54:13.051Z,91.10
2023-03-12T22:56:40.531Z,91.26
2023-03-12T22:59:07.855Z,90.94
2023-03-12T23:01:35.119Z,91.14
2023-03-12T23:04:06.369Z,90.93
2023-03-12T23:06:34.189Z,91.03
2023-03-12T23:09:01.674Z,91.02
2023-03-12T23:11:29.839Z,91.15
2023-03-12T23:13:57.317Z,91.31
2023-03-12T23:16:26.253Z,91.00
2023-03-12T23:18:53.915Z,90.75
2023-03-12T23:21:24.253Z,91.10
2023-03-12T23:23:52.373Z,91.35
2023-03-12T23:26:21.388Z,91.16
2023-03-12T23:28:48.717Z,91.08
2023-03-12T23:31:16.532Z,90.86
2023-03-12T23:33:44.668Z,90.95
2023-03-12T23:36:14.096Z,90.72
2023-03-12T23:38:43.250Z,90.98
2023-03-12T23:41:13.050Z,90.73
2023-03-12T23:43:40.872Z,90.94
2023-03-12T23:46:09.410Z,90.73
2023-03-12T23:48:37.817Z,90.83
2023-03-12T23:51:06.902Z,91.05
2023-03-12T23:53:35.325Z,90.80
2023-03-12T23:56:06.606Z,90.79
2023-03-12T23:58:34.640Z,90.78
